createdAt,value
2018-03-17T00:02:12.962Z,15.57
2018-03-17T00:04:41.920Z,14.03
2018-03-17T00:07:11.088Z,15.30
2018-03-17T00:09:39.924Z,14.83
2018-03-17T00:12:09.176Z,12.27
2018-03-17T00:14:38.376Z,15.50
2018-03-17T00:17:07.220Z,13.83
2018-03-17T00:19:36.073Z,13.93
2018-03-17T00:22:05.058Z,13.80
2018-03-17T00:24:34.034Z,14.30
2018-03-17T00:27:03.254Z,14.40
2018-03-17T00:29:32.124Z,14.70
2018-03-17T00:32:01.075Z,14.87
2018-03-17T00:34:29.908Z,14.00
2018-03-17T00:36:59.262Z,14.73
2018-03-17T00:39:28.140Z,13.83
2018-03-17T00:41:57.531Z,13.83
2018-03-17T00:44:27.019Z,13.10
2018-03-17T00:46:56.745Z,13.33
2018-03-17T00:49:26.286Z,13.83
2018-03-17T00:51:55.155Z,13.00
2018-03-17T00:54:23.998Z,13.77
2018-03-17T00:56:52.872Z,13.97
2018-03-17T00:59:21.736Z,12.97
2018-03-17T01:01:50.584Z,13.93
2018-03-17T01:04:19.426Z,13.57
2018-03-17T01:06:48.306Z,12.83
2018-03-17T01:09:17.778Z,12.27
2018-03-17T01:11:46.616Z,12.13
2018-03-17T01:14:15.494Z,13.20
2018-03-17T01:16:44.332Z,11.57
2018-03-17T01:19:13.188Z,11.00
2018-03-17T01:21:42.068Z,12.63
2018-03-17T01:24:10.929Z,11.53
2018-03-17T01:26:39.801Z,11.20
2018-03-17T01:29:08.657Z,12.00
2018-03-17T01:31:37.520Z,11.53
2018-03-17T01:34:06.392Z,11.37
2018-03-17T01:36:35.252Z,12.03
2018-03-17T01:39:04.150Z,11.23
2018-03-17T01:41:33.010Z,11.33
2018-03-17T01:44:01.877Z,11.17
2018-03-17T01:46:31.548Z,11.10
2018-03-17T01:49:00.416Z,10.87
2018-03-17T01:51:29.258Z,10.70
2018-03-17T01:54:03.988Z,10.17
2018-03-17T01:56:35.562Z,10.83
2018-03-17T01:59:04.472Z,10.57
2018-03-17T02:01:33.312Z,11.07
2018-03-17T02:04:02.170Z,10.47
2018-03-17T02:06:31.036Z,11.07
2018-03-17T02:08:59.872Z,10.57
2018-03-17T02:11:28.972Z,11.17
2018-03-17T02:13:57.838Z,10.97
2018-03-17T02:16:26.778Z,10.37
2018-03-17T02:18:55.607Z,10.90
2018-03-17T02:21:25.415Z,10.30
2018-03-17T02:23:54.253Z,10.30
2018-03-17T02:26:23.115Z,7.57
2018-03-17T02:28:51.960Z,9.87
2018-03-17T02:31:20.896Z,10.97
2018-03-17T02:33:51.144Z,10.40
2018-03-17T02:36:20.021Z,11.07
2018-03-17T02:38:48.951Z,9.93
2018-03-17T02:41:17.797Z,6.63
2018-03-17T02:43:46.659Z,9.47
2018-03-17T02:46:16.216Z,8.20
2018-03-17T02:48:45.565Z,8.07
2018-03-17T02:51:14.424Z,8.87
2018-03-17T02:53:43.267Z,9.07
2018-03-17T02:56:12.115Z,9.60
2018-03-17T02:58:41.041Z,7.13
2018-03-17T03:01:09.879Z,9.23
2018-03-17T03:03:38.743Z,9.53
2018-03-17T03:06:07.589Z,9.13
2018-03-17T03:08:36.439Z,9.00
2018-03-17T03:11:05.314Z,5.73
2018-03-17T03:13:34.663Z,8.80
2018-03-17T03:16:04.277Z,9.57
2018-03-17T03:18:33.148Z,9.77
2018-03-17T03:21:02.975Z,7.93
2018-03-17T03:23:32.225Z,9.33
2018-03-17T03:26:01.113Z,7.70
2018-03-17T03:28:29.955Z,9.30
2018-03-17T03:30:58.799Z,8.77
2018-03-17T03:33:27.663Z,7.93
2018-03-17T03:35:57.188Z,9.37
2018-03-17T03:38:26.047Z,9.47
2018-03-17T03:40:54.897Z,9.20
2018-03-17T03:43:23.741Z,8.07
2018-03-17T03:45:52.621Z,8.30
2018-03-17T03:48:21.477Z,6.97
2018-03-17T03:50:50.319Z,8.57
2018-03-17T03:53:19.189Z,8.70
2018-03-17T03:55:48.541Z,8.63
2018-03-17T03:58:17.397Z,10.30
2018-03-17T04:00:46.277Z,7.80
2018-03-17T04:03:15.116Z,9.87
2018-03-17T04:05:43.965Z,10.33
2018-03-17T04:08:13.701Z,9.33
2018-03-17T04:10:42.578Z,7.43
2018-03-17T04:13:11.498Z,10.17
2018-03-17T04:15:40.364Z,6.57
2018-03-17T04:18:09.209Z,11.13
2018-03-17T04:20:38.064Z,9.77
2018-03-17T04:23:06.923Z,9.50
2018-03-17T04:25:35.795Z,10.63
2018-03-17T04:28:04.633Z,9.57
2018-03-17T04:30:33.499Z,9.87
2018-03-17T04:33:02.350Z,10.03
2018-03-17T04:35:31.197Z,9.80
2018-03-17T04:38:00.057Z,9.70
2018-03-17T04:40:29.459Z,8.97
2018-03-17T04:42:58.299Z,8.13
2018-03-17T04:45:27.180Z,9.80
2018-03-17T04:47:56.015Z,9.20
2018-03-17T04:50:24.889Z,10.00
2018-03-17T04:52:53.795Z,8.83
2018-03-17T04:55:22.631Z,9.60
2018-03-17T04:57:51.535Z,9.10
2018-03-17T05:00:20.403Z,9.47
2018-03-17T05:02:51.129Z,8.90
2018-03-17T05:05:19.999Z,9.90
2018-03-17T05:07:49.959Z,9.37
2018-03-17T05:10:18.944Z,9.00
2018-03-17T05:12:47.795Z,9.67
2018-03-17T05:15:16.648Z,9.23
2018-03-17T05:17:45.519Z,8.23
2018-03-17T05:20:14.384Z,8.77
2018-03-17T05:22:43.263Z,9.77
2018-03-17T05:25:12.118Z,9.70
2018-03-17T05:27:40.979Z,9.67
2018-03-17T05:30:10.617Z,9.07
2018-03-17T05:32:39.500Z,9.43
2018-03-17T05:35:08.378Z,9.20
2018-03-17T05:37:37.226Z,8.07
2018-03-17T05:40:06.073Z,9.17
2018-03-17T05:42:34.953Z,5.60
2018-03-17T05:45:04.133Z,10.00
2018-03-17T05:47:33.028Z,9.30
2018-03-17T05:50:02.003Z,9.53
2018-03-17T05:52:31.144Z,8.97
2018-03-17T05:55:01.037Z,9.20
2018-03-17T05:57:29.963Z,9.17
2018-03-17T05:59:59.407Z,8.83
2018-03-17T06:02:29.301Z,8.63
2018-03-17T06:04:58.185Z,9.00
2018-03-17T06:07:27.982Z,9.90
2018-03-17T06:09:56.849Z,9.00
2018-03-17T06:12:26.653Z,8.63
2018-03-17T06:14:55.515Z,7.67
2018-03-17T06:17:24.364Z,4.90
2018-03-17T06:19:53.251Z,8.50
2018-03-17T06:22:22.420Z,7.87
2018-03-17T06:24:54.164Z,8.53
2018-03-17T06:27:23.003Z,8.40
2018-03-17T06:29:51.907Z,8.53
2018-03-17T06:32:20.807Z,6.97
2018-03-17T06:34:51.179Z,8.70
2018-03-17T06:37:20.031Z,8.40
2018-03-17T06:39:49.814Z,8.10
2018-03-17T06:42:18.662Z,7.37
2018-03-17T06:44:47.527Z,8.90
2018-03-17T06:47:16.399Z,8.40
2018-03-17T06:49:45.255Z,7.50
2018-03-17T06:52:14.083Z,8.10
2018-03-17T06:54:42.953Z,7.63
2018-03-17T06:57:11.790Z,7.80
2018-03-17T06:59:40.652Z,3.73
2018-03-17T07:02:10.335Z,8.17
2018-03-17T07:04:39.193Z,7.83
2018-03-17T07:07:08.111Z,7.40
2018-03-17T07:09:37.967Z,7.60
2018-03-17T07:12:06.831Z,7.80
2018-03-17T07:14:36.333Z,8.10
2018-03-17T07:17:05.713Z,8.10
2018-03-17T07:19:35.111Z,7.30
2018-03-17T07:22:03.961Z,7.57
2018-03-17T07:24:32.839Z,7.20
2018-03-17T07:27:01.805Z,7.50
2018-03-17T07:29:33.431Z,6.00
2018-03-17T07:32:02.345Z,7.37
2018-03-17T07:34:31.189Z,7.63
2018-03-17T07:37:00.056Z,8.23
2018-03-17T07:39:29.675Z,7.27
2018-03-17T07:41:58.879Z,8.50
2018-03-17T07:44:27.802Z,8.90
2018-03-17T07:46:56.856Z,7.03
2018-03-17T07:49:25.718Z,4.73
2018-03-17T07:51:54.661Z,8.37
2018-03-17T07:54:23.515Z,7.47
2018-03-17T07:56:52.427Z,7.70
2018-03-17T07:59:21.314Z,6.70
2018-03-17T08:01:50.895Z,7.20
2018-03-17T08:04:19.730Z,8.83
2018-03-17T08:06:48.609Z,3.83
2018-03-17T08:09:17.468Z,7.23
2018-03-17T08:11:46.316Z,7.90
2018-03-17T08:14:15.196Z,8.53
2018-03-17T08:16:44.044Z,8.87
2018-03-17T08:19:12.890Z,8.50
2018-03-17T08:21:41.765Z,8.30
2018-03-17T08:24:10.616Z,9.03
2018-03-17T08:26:39.461Z,6.90
2018-03-17T08:29:08.340Z,7.80
2018-03-17T08:31:37.198Z,9.73
2018-03-17T08:34:06.047Z,9.63
2018-03-17T08:36:34.926Z,8.27
2018-03-17T08:39:04.416Z,8.20
2018-03-17T08:41:33.264Z,8.17
2018-03-17T08:44:02.129Z,7.77
2018-03-17T08:46:31.719Z,7.30
2018-03-17T08:49:00.673Z,7.47
2018-03-17T08:51:30.268Z,5.30
2018-03-17T08:53:59.111Z,7.27
2018-03-17T08:56:29.424Z,7.87
2018-03-17T08:58:58.268Z,7.97
2018-03-17T09:01:27.272Z,8.40
2018-03-17T09:03:58.001Z,8.00
2018-03-17T09:06:27.944Z,7.07
2018-03-17T09:08:56.823Z,7.83
2018-03-17T09:11:25.697Z,7.17
2018-03-17T09:13:55.428Z,8.23
2018-03-17T09:16:24.944Z,7.70
2018-03-17T09:18:53.926Z,5.60
2018-03-17T09:21:22.810Z,7.23
2018-03-17T09:23:52.002Z,7.83
2018-03-17T09:26:20.855Z,7.90
2018-03-17T09:28:49.706Z,7.17
2018-03-17T09:31:18.586Z,6.80
2018-03-17T09:33:47.442Z,7.07
2018-03-17T09:36:16.296Z,7.27
2018-03-17T09:38:45.180Z,8.30
2018-03-17T09:41:14.042Z,7.23
2018-03-17T09:43:42.880Z,7.73
2018-03-17T09:46:12.538Z,8.67
2018-03-17T09:48:41.386Z,7.17
2018-03-17T09:51:10.240Z,7.53
2018-03-17T09:53:39.124Z,7.50
2018-03-17T09:56:07.986Z,7.10
2018-03-17T09:58:36.861Z,7.37
2018-03-17T10:01:05.762Z,7.03
2018-03-17T10:03:36.096Z,7.73
2018-03-17T10:06:04.968Z,7.30
2018-03-17T10:08:34.488Z,6.40
2018-03-17T10:11:03.333Z,7.17
2018-03-17T10:13:32.228Z,8.47
2018-03-17T10:16:01.410Z,8.17
2018-03-17T10:18:31.086Z,5.77
2018-03-17T10:20:59.963Z,7.23
2018-03-17T10:23:29.064Z,6.00
2018-03-17T10:25:58.119Z,6.57
2018-03-17T10:28:26.991Z,7.17
2018-03-17T10:30:55.916Z,7.90
2018-03-17T10:33:24.806Z,7.90
2018-03-17T10:35:54.055Z,6.60
2018-03-17T10:38:22.884Z,7.30
2018-03-17T10:40:52.440Z,7.13
2018-03-17T10:43:21.308Z,7.70
2018-03-17T10:45:50.191Z,7.97
2018-03-17T10:48:19.028Z,8.37
2018-03-17T10:50:47.897Z,6.00
2018-03-17T10:53:16.750Z,7.03
2018-03-17T10:55:46.143Z,7.20
2018-03-17T10:58:15.513Z,7.87
2018-03-17T11:00:46.553Z,7.87
2018-03-17T11:03:15.731Z,8.07
2018-03-17T11:05:44.586Z,6.53
2018-03-17T11:08:13.432Z,7.63
2018-03-17T11:10:44.254Z,8.07
2018-03-17T11:13:13.096Z,6.10
2018-03-17T11:15:42.003Z,7.60
2018-03-17T11:18:11.648Z,6.67
2018-03-17T11:20:40.564Z,7.73
2018-03-17T11:23:09.964Z,7.43
2018-03-17T11:25:39.408Z,7.63
2018-03-17T11:28:08.634Z,8.03
2018-03-17T11:30:37.523Z,8.00
2018-03-17T11:33:07.089Z,7.50
2018-03-17T11:35:35.936Z,7.20
2018-03-17T11:38:04.885Z,7.30
2018-03-17T11:40:33.761Z,7.37
2018-03-17T11:43:03.253Z,7.70
2018-03-17T11:45:32.672Z,5.83
2018-03-17T11:48:01.713Z,6.83
2018-03-17T11:50:30.540Z,6.87
2018-03-17T11:52:59.421Z,6.00
2018-03-17T11:55:29.311Z,6.03
2018-03-17T11:57:58.161Z,7.27
2018-03-17T12:00:28.876Z,7.33
2018-03-17T12:03:00.301Z,6.97
2018-03-17T12:05:29.167Z,6.73
2018-03-17T12:07:58.003Z,6.87
2018-03-17T12:10:26.875Z,6.70
2018-03-17T12:12:56.559Z,6.40
2018-03-17T12:15:25.412Z,6.43
2018-03-17T12:17:54.750Z,4.37
2018-03-17T12:20:23.625Z,7.17
2018-03-17T12:22:53.453Z,6.63
2018-03-17T12:25:22.831Z,5.90
2018-03-17T12:27:52.691Z,5.90
2018-03-17T12:30:21.789Z,4.13
2018-03-17T12:32:51.221Z,6.73
2018-03-17T12:35:20.187Z,6.97
2018-03-17T12:37:50.737Z,6.90
2018-03-17T12:40:21.709Z,4.93
2018-03-17T12:42:50.597Z,6.00
2018-03-17T12:45:20.510Z,5.40
2018-03-17T12:47:50.871Z,4.67
2018-03-17T12:50:19.795Z,6.40
2018-03-17T12:52:48.623Z,4.83
2018-03-17T12:55:17.697Z,5.87
2018-03-17T12:57:47.968Z,5.40
2018-03-17T13:00:23.115Z,5.60
2018-03-17T13:02:52.979Z,5.27
2018-03-17T13:05:21.862Z,6.07
2018-03-17T13:07:50.716Z,14.03
2018-03-17T13:10:19.996Z,7.80
2018-03-17T13:12:49.340Z,6.20
2018-03-17T13:15:18.275Z,5.97
2018-03-17T13:17:47.167Z,7.80
2018-03-17T13:20:15.996Z,7.17
2018-03-17T13:22:50.738Z,8.53
2018-03-17T13:25:19.638Z,6.53
2018-03-17T13:27:54.376Z,7.20
2018-03-17T13:30:23.231Z,6.57
2018-03-17T13:32:57.078Z,4.83
2018-03-17T13:35:31.736Z,4.23
2018-03-17T13:38:00.604Z,6.63
2018-03-17T13:40:45.670Z,5.77
2018-03-17T13:43:14.671Z,6.90
2018-03-17T13:45:43.831Z,4.73
2018-03-17T13:48:12.692Z,5.47
2018-03-17T13:50:41.596Z,5.87
2018-03-17T13:53:11.408Z,6.20
2018-03-17T13:55:40.273Z,6.93
2018-03-17T13:58:09.162Z,5.00
2018-03-17T14:00:38.010Z,6.70
2018-03-17T14:03:06.843Z,5.00
2018-03-17T14:05:35.700Z,4.40
2018-03-17T14:08:04.628Z,6.67
2018-03-17T14:10:33.469Z,5.33
2018-03-17T14:13:02.360Z,5.27
2018-03-17T14:15:31.196Z,6.00
2018-03-17T14:18:00.042Z,5.43
2018-03-17T14:20:29.596Z,7.17
2018-03-17T14:22:58.444Z,3.67
2018-03-17T14:25:27.288Z,7.47
2018-03-17T14:27:56.154Z,5.73
2018-03-17T14:30:24.993Z,6.43
2018-03-17T14:32:53.884Z,5.43
2018-03-17T14:35:22.750Z,5.33
2018-03-17T14:37:51.606Z,4.73
2018-03-17T14:40:20.455Z,4.17
2018-03-17T14:42:50.162Z,6.70
2018-03-17T14:45:19.282Z,7.50
2018-03-17T14:47:48.505Z,5.47
2018-03-17T14:50:18.240Z,5.23
2018-03-17T14:52:47.074Z,7.73
2018-03-17T14:55:16.739Z,6.60
2018-03-17T14:57:45.666Z,8.07
2018-03-17T15:00:14.524Z,4.23
2018-03-17T15:02:43.368Z,5.97
2018-03-17T15:05:12.264Z,5.30
2018-03-17T15:07:41.110Z,5.03
2018-03-17T15:10:10.097Z,6.47
2018-03-17T15:12:39.005Z,4.53
2018-03-17T15:15:08.552Z,5.80
2018-03-17T15:17:37.429Z,8.70
2018-03-17T15:20:06.372Z,4.87
2018-03-17T15:22:35.205Z,5.93
2018-03-17T15:25:04.150Z,5.93
2018-03-17T15:27:32.990Z,5.40
2018-03-17T15:30:01.918Z,5.30
2018-03-17T15:32:31.726Z,6.43
2018-03-17T15:35:00.593Z,6.37
2018-03-17T15:37:30.236Z,5.20
2018-03-17T15:39:59.381Z,5.77
2018-03-17T15:42:28.217Z,6.17
2018-03-17T15:44:57.079Z,5.53
2018-03-17T15:47:25.973Z,4.90
2018-03-17T15:49:54.850Z,4.30
2018-03-17T15:52:23.707Z,7.10
2018-03-17T15:54:52.593Z,6.93
2018-03-17T15:57:21.441Z,6.03
2018-03-17T15:59:50.299Z,7.43
2018-03-17T16:02:19.172Z,14.53
2018-03-17T16:04:48.010Z,5.90
2018-03-17T16:07:17.427Z,7.57
2018-03-17T16:09:46.304Z,5.23
2018-03-17T16:12:15.145Z,5.80
2018-03-17T16:14:44.009Z,7.67
2018-03-17T16:17:12.905Z,5.23
2018-03-17T16:19:41.761Z,5.70
2018-03-17T16:22:10.609Z,5.53
2018-03-17T16:24:39.479Z,6.03
2018-03-17T16:27:09.311Z,5.37
2018-03-17T16:29:38.153Z,6.00
2018-03-17T16:32:07.020Z,6.80
2018-03-17T16:34:35.876Z,7.53
2018-03-17T16:37:04.729Z,7.60
2018-03-17T16:39:33.616Z,6.90
2018-03-17T16:42:03.183Z,6.10
2018-03-17T16:44:32.523Z,6.97
2018-03-17T16:47:01.389Z,8.00
2018-03-17T16:49:30.229Z,6.60
2018-03-17T16:51:59.059Z,6.93
2018-03-17T16:54:27.945Z,6.40
2018-03-17T16:56:57.087Z,6.77
2018-03-17T16:59:25.953Z,5.40
2018-03-17T17:01:54.839Z,6.80
2018-03-17T17:04:23.687Z,7.17
2018-03-17T17:06:53.145Z,6.03
2018-03-17T17:09:22.596Z,6.87
2018-03-17T17:11:51.436Z,5.63
2018-03-17T17:14:20.288Z,5.17
2018-03-17T17:16:49.165Z,5.60
2018-03-17T17:19:18.022Z,5.33
2018-03-17T17:21:46.874Z,5.70
2018-03-17T17:24:15.743Z,6.37
2018-03-17T17:26:44.587Z,6.37
2018-03-17T17:29:13.497Z,4.30
2018-03-17T17:31:42.378Z,6.93
2018-03-17T17:34:12.061Z,6.57
2018-03-17T17:36:41.043Z,4.93
2018-03-17T17:39:09.920Z,2.90
2018-03-17T17:41:38.803Z,4.23
2018-03-17T17:44:07.689Z,3.73
2018-03-17T17:46:36.557Z,3.33
2018-03-17T17:49:05.434Z,8.23
2018-03-17T17:51:34.315Z,7.07
2018-03-17T17:54:03.223Z,6.23
2018-03-17T17:56:32.111Z,5.40
2018-03-17T17:59:00.980Z,6.30
2018-03-17T18:01:31.074Z,6.83
2018-03-17T18:03:59.933Z,6.73
2018-03-17T18:06:29.213Z,5.40
2018-03-17T18:08:58.090Z,7.63
2018-03-17T18:11:26.928Z,6.20
2018-03-17T18:13:56.517Z,5.83
2018-03-17T18:16:26.203Z,7.20
2018-03-17T18:18:55.070Z,6.80
2018-03-17T18:21:24.011Z,6.17
2018-03-17T18:23:53.524Z,6.13
2018-03-17T18:26:22.385Z,7.20
2018-03-17T18:28:51.238Z,5.83
2018-03-17T18:31:20.103Z,5.53
2018-03-17T18:33:49.841Z,6.10
2018-03-17T18:36:18.703Z,6.83
2018-03-17T18:38:47.577Z,6.63
2018-03-17T18:41:16.431Z,6.90
2018-03-17T18:43:45.297Z,4.90
2018-03-17T18:46:14.156Z,7.87
2018-03-17T18:48:43.082Z,7.93
2018-03-17T18:51:11.924Z,5.00
2018-03-17T18:53:40.844Z,5.77
2018-03-17T18:56:10.558Z,6.40
2018-03-17T18:58:39.400Z,5.07
2018-03-17T19:01:08.266Z,7.00
2018-03-17T19:03:37.098Z,5.67
2018-03-17T19:06:05.925Z,6.73
2018-03-17T19:08:34.867Z,8.63
2018-03-17T19:11:03.736Z,6.20
2018-03-17T19:13:32.590Z,5.60
2018-03-17T19:16:01.476Z,6.30
2018-03-17T19:18:30.324Z,6.00
2018-03-17T19:20:59.808Z,6.07
2018-03-17T19:23:32.379Z,4.30
2018-03-17T19:26:02.014Z,5.13
2018-03-17T19:28:32.940Z,5.83
2018-03-17T19:31:01.828Z,5.40
2018-03-17T19:33:31.298Z,5.93
2018-03-17T19:36:00.188Z,6.13
2018-03-17T19:38:29.100Z,5.83
2018-03-17T19:40:59.117Z,6.07
2018-03-17T19:43:28.561Z,6.60
2018-03-17T19:45:58.397Z,5.37
2018-03-17T19:48:27.252Z,5.03
2018-03-17T19:50:56.114Z,5.97
2018-03-17T19:53:24.953Z,6.73
2018-03-17T19:55:53.842Z,6.30
2018-03-17T19:58:22.732Z,6.37
2018-03-17T20:00:51.561Z,6.90
2018-03-17T20:03:20.418Z,5.50
2018-03-17T20:05:49.271Z,5.90
2018-03-17T20:10:51.840Z,7.67
2018-03-17T20:13:20.708Z,5.20
2018-03-17T20:15:50.144Z,7.13
2018-03-17T20:18:19.028Z,4.87
2018-03-17T20:20:47.884Z,6.27
2018-03-17T20:23:16.739Z,7.50
2018-03-17T20:25:45.608Z,4.80
2018-03-17T20:28:14.444Z,5.37
2018-03-17T20:30:43.312Z,5.50
2018-03-17T20:33:12.200Z,5.70
2018-03-17T20:35:41.044Z,7.23
2018-03-17T20:38:09.912Z,5.83
2018-03-17T20:40:38.786Z,5.80
2018-03-17T20:43:07.632Z,4.37
2018-03-17T20:45:36.504Z,4.73
2018-03-17T20:48:05.413Z,5.80
2018-03-17T20:50:34.273Z,7.60
2018-03-17T20:53:03.128Z,6.23
2018-03-17T20:55:32.000Z,5.40
2018-03-17T20:58:00.945Z,5.23
2018-03-17T21:00:30.461Z,4.80
2018-03-17T21:02:59.334Z,4.73
2018-03-17T21:05:28.186Z,4.90
2018-03-17T21:07:57.069Z,6.77
2018-03-17T21:10:25.924Z,9.57
2018-03-17T21:12:54.777Z,8.40
2018-03-17T21:15:23.644Z,7.53
2018-03-17T21:17:54.566Z,6.30
2018-03-17T21:20:23.556Z,6.43
2018-03-17T21:22:52.444Z,4.03
2018-03-17T21:25:21.281Z,6.17
2018-03-17T21:27:50.152Z,7.30
2018-03-17T21:30:19.084Z,6.37
2018-03-17T21:32:47.920Z,4.53
2018-03-17T21:35:17.027Z,5.23
2018-03-17T21:37:45.917Z,4.40
2018-03-17T21:40:14.982Z,6.77
2018-03-17T21:42:43.817Z,4.93
2018-03-17T21:45:13.732Z,3.53
2018-03-17T21:47:43.135Z,6.73
2018-03-17T21:50:12.174Z,5.63
2018-03-17T21:52:41.223Z,5.37
2018-03-17T21:55:10.368Z,6.07
2018-03-17T21:57:39.212Z,4.60
2018-03-17T22:00:08.452Z,6.63
2018-03-17T22:02:37.306Z,7.03
2018-03-17T22:05:06.140Z,4.17
2018-03-17T22:07:35.950Z,4.73
2018-03-17T22:10:04.828Z,5.03
2018-03-17T22:12:33.988Z,6.30
2018-03-17T22:15:02.899Z,5.23
2018-03-17T22:17:32.592Z,7.57
2018-03-17T22:20:01.451Z,5.77
2018-03-17T22:22:30.339Z,5.97
2018-03-17T22:24:59.334Z,5.57
2018-03-17T22:27:28.718Z,4.23
2018-03-17T22:29:57.579Z,6.53
2018-03-17T22:32:26.441Z,7.67
2018-03-17T22:34:55.337Z,6.00
2018-03-17T22:37:24.238Z,6.10
2018-03-17T22:39:53.086Z,6.63
2018-03-17T22:42:22.848Z,6.63
2018-03-17T22:44:52.513Z,5.63
2018-03-17T22:47:21.357Z,8.13
2018-03-17T22:49:50.202Z,6.23
2018-03-17T22:52:19.125Z,4.47
2018-03-17T22:54:48.111Z,4.47
2018-03-17T22:57:17.438Z,7.70
2018-03-17T22:59:46.304Z,4.57
2018-03-17T23:02:15.347Z,6.10
2018-03-17T23:04:45.092Z,6.80
2018-03-17T23:07:14.020Z,7.23
2018-03-17T23:09:43.192Z,5.67
2018-03-17T23:12:12.000Z,5.47
2018-03-17T23:14:40.864Z,4.70
2018-03-17T23:17:11.378Z,6.57
2018-03-17T23:19:40.266Z,6.07
2018-03-17T23:22:09.147Z,6.43
2018-03-17T23:24:38.087Z,5.03
2018-03-17T23:27:06.928Z,6.43
2018-03-17T23:29:35.828Z,7.20
2018-03-17T23:32:05.018Z,6.00
2018-03-17T23:34:33.902Z,7.27
2018-03-17T23:37:02.799Z,7.00
2018-03-17T23:39:31.646Z,5.30
2018-03-17T23:42:01.204Z,7.27
2018-03-17T23:44:30.121Z,4.23
2018-03-17T23:46:58.972Z,6.07
2018-03-17T23:49:27.856Z,6.30
2018-03-17T23:51:57.104Z,6.17
2018-03-17T23:54:25.942Z,5.80
2018-03-17T23:56:54.779Z,7.00
2018-03-17T23:59:23.678Z,6.83
